sensor_id;sensor_type;location;lat;lon;timestamp;P1;P2;P0
78063;PMS5003;67429;51.596;-3.264;2023-04-01T00:01:48;1;1;
78063;PMS5003;67429;51.596;-3.264;2023-04-01T00:04:14;2;2;
78063;PMS5003;67429;51.596;-3.264;2023-04-01T00:06:40;3;3;
78063;PMS5003;67429;51.596;-3.264;2023-04-01T00:09:05;1;1;
78063;PMS5003;67429;51.596;-3.264;2023-04-01T00:11:32;1;1;
78063;PMS5003;67429;51.596;-3.264;2023-04-01T00:13:57;2;2;
78063;PMS5003;67429;51.596;-3.264;2023-04-01T00:16:22;2;2;
78063;PMS5003;67429;51.596;-3.264;2023-04-01T00:18:48;1;1;
78063;PMS5003;67429;51.596;-3.264;2023-04-01T00:21:14;2;2;
78063;PMS5003;67429;51.596;-3.264;2023-04-01T00:23:39;1;1;
78063;PMS5003;67429;51.596;-3.264;2023-04-01T00:26:05;2;2;
78063;PMS5003;67429;51.596;-3.264;2023-04-01T00:28:31;1;1;
78063;PMS5003;67429;51.596;-3.264;2023-04-01T00:30:57;2;2;
78063;PMS5003;67429;51.596;-3.264;2023-04-01T00:33:22;1;1;
78063;PMS5003;67429;51.596;-3.264;2023-04-01T00:35:48;2;2;
78063;PMS5003;67429;51.596;-3.264;2023-04-01T00:38:13;2;2;
78063;PMS5003;67429;51.596;-3.264;2023-04-01T00:40:40;3;2;
78063;PMS5003;67429;51.596;-3.264;2023-04-01T00:43:09;3;3;
78063;PMS5003;67429;51.596;-3.264;2023-04-01T00:45:32;1;1;
78063;PMS5003;67429;51.596;-3.264;2023-04-01T00:47:56;0;0;
78063;PMS5003;67429;51.596;-3.264;2023-04-01T00:50:22;1;1;
78063;PMS5003;67429;51.596;-3.264;2023-04-01T00:52:47;2;2;
78063;PMS5003;67429;51.596;-3.264;2023-04-01T00:55:13;1;1;
78063;PMS5003;67429;51.596;-3.264;2023-04-01T00:57:39;1;1;
78063;PMS5003;67429;51.596;-3.264;2023-04-01T01:00:05;0;0;
78063;PMS5003;67429;51.596;-3.264;2023-04-01T01:02:30;1;1;
78063;PMS5003;67429;51.596;-3.264;2023-04-01T01:04:56;1;1;
78063;PMS5003;67429;51.596;-3.264;2023-04-01T01:07:23;1;1;
78063;PMS5003;67429;51.596;-3.264;2023-04-01T01:09:48;2;2;
78063;PMS5003;67429;51.596;-3.264;2023-04-01T01:12:13;2;2;
78063;PMS5003;67429;51.596;-3.264;2023-04-01T01:14:43;2;2;
78063;PMS5003;67429;51.596;-3.264;2023-04-01T01:17:06;1;1;
78063;PMS5003;67429;51.596;-3.264;2023-04-01T01:19:37;2;2;
78063;PMS5003;67429;51.596;-3.264;2023-04-01T01:21:59;1;1;
78063;PMS5003;67429;51.596;-3.264;2023-04-01T01:26:48;3;3;
78063;PMS5003;67429;51.596;-3.264;2023-04-01T01:29:15;2;2;
78063;PMS5003;67429;51.596;-3.264;2023-04-01T01:31:40;1;1;
78063;PMS5003;67429;51.596;-3.264;2023-04-01T01:34:06;2;2;
78063;PMS5003;67429;51.596;-3.264;2023-04-01T01:36:30;2;2;
78063;PMS5003;67429;51.596;-3.264;2023-04-01T01:38:55;4;3;
78063;PMS5003;67429;51.596;-3.264;2023-04-01T01:41:20;2;2;
78063;PMS5003;67429;51.596;-3.264;2023-04-01T01:43:47;3;2;
78063;PMS5003;67429;51.596;-3.264;2023-04-01T01:46:12;2;2;
78063;PMS5003;67429;51.596;-3.264;2023-04-01T01:48:37;2;2;
78063;PMS5003;67429;51.596;-3.264;2023-04-01T01:51:03;3;3;
78063;PMS5003;67429;51.596;-3.264;2023-04-01T01:53:29;2;2;
78063;PMS5003;67429;51.596;-3.264;2023-04-01T01:55:54;2;2;
78063;PMS5003;67429;51.596;-3.264;2023-04-01T01:58:21;4;3;
78063;PMS5003;67429;51.596;-3.264;2023-04-01T02:00:46;4;3;
78063;PMS5003;67429;51.596;-3.264;2023-04-01T02:03:11;2;2;
78063;PMS5003;67429;51.596;-3.264;2023-04-01T02:05:37;3;2;
78063;PMS5003;67429;51.596;-3.264;2023-04-01T02:08:05;4;3;
78063;PMS5003;67429;51.596;-3.264;2023-04-01T02:10:28;3;3;
78063;PMS5003;67429;51.596;-3.264;2023-04-01T02:12:55;3;3;
78063;PMS5003;67429;51.596;-3.264;2023-04-01T02:15:20;2;2;
78063;PMS5003;67429;51.596;-3.264;2023-04-01T02:17:45;2;2;
78063;PMS5003;67429;51.596;-3.264;2023-04-01T02:20:12;2;2;
78063;PMS5003;67429;51.596;-3.264;2023-04-01T02:22:37;2;2;
78063;PMS5003;67429;51.596;-3.264;2023-04-01T02:25:04;3;3;
78063;PMS5003;67429;51.596;-3.264;2023-04-01T02:27:28;2;2;
78063;PMS5003;67429;51.596;-3.264;2023-04-01T02:29:54;2;1;
78063;PMS5003;67429;51.596;-3.264;2023-04-01T02:32:19;2;2;
78063;PMS5003;67429;51.596;-3.264;2023-04-01T02:34:45;2;2;
78063;PMS5003;67429;51.596;-3.264;2023-04-01T02:37:11;1;1;
78063;PMS5003;67429;51.596;-3.264;2023-04-01T02:39:36;2;2;
78063;PMS5003;67429;51.596;-3.264;2023-04-01T02:42:02;0;0;
78063;PMS5003;67429;51.596;-3.264;2023-04-01T02:44:28;1;1;
78063;PMS5003;67429;51.596;-3.264;2023-04-01T02:46:54;3;3;
78063;PMS5003;67429;51.596;-3.264;2023-04-01T02:49:19;2;2;
78063;PMS5003;67429;51.596;-3.264;2023-04-01T02:51:44;1;1;
78063;PMS5003;67429;51.596;-3.264;2023-04-01T02:54:10;0;0;
78063;PMS5003;67429;51.596;-3.264;2023-04-01T02:56:36;2;2;
78063;PMS5003;67429;51.596;-3.264;2023-04-01T02:59:01;2;1;
78063;PMS5003;67429;51.596;-3.264;2023-04-01T03:01:27;1;1;
78063;PMS5003;67429;51.596;-3.264;2023-04-01T03:03:53;2;1;
78063;PMS5003;67429;51.596;-3.264;2023-04-01T03:06:18;0;0;
78063;PMS5003;67429;51.596;-3.264;2023-04-01T03:08:44;1;1;
78063;PMS5003;67429;51.596;-3.264;2023-04-01T03:11:10;2;2;
78063;PMS5003;67429;51.596;-3.264;2023-04-01T03:13:35;1;1;
78063;PMS5003;67429;51.596;-3.264;2023-04-01T03:16:01;0;0;
78063;PMS5003;67429;51.596;-3.264;2023-04-01T03:18:27;1;1;
78063;PMS5003;67429;51.596;-3.264;2023-04-01T03:20:52;1;1;
78063;PMS5003;67429;51.596;-3.264;2023-04-01T03:23:18;1;1;
78063;PMS5003;67429;51.596;-3.264;2023-04-01T03:25:44;1;0;
78063;PMS5003;67429;51.596;-3.264;2023-04-01T03:28:09;0;0;
78063;PMS5003;67429;51.596;-3.264;2023-04-01T03:30:35;0;0;
78063;PMS5003;67429;51.596;-3.264;2023-04-01T03:33:01;0;0;
78063;PMS5003;67429;51.596;-3.264;2023-04-01T03:35:26;0;0;
78063;PMS5003;67429;51.596;-3.264;2023-04-01T03:37:52;0;0;
78063;PMS5003;67429;51.596;-3.264;2023-04-01T03:40:18;1;1;
78063;PMS5003;67429;51.596;-3.264;2023-04-01T03:42:43;0;0;
78063;PMS5003;67429;51.596;-3.264;2023-04-01T03:45:10;0;0;
78063;PMS5003;67429;51.596;-3.264;2023-04-01T03:47:35;0;0;
78063;PMS5003;67429;51.596;-3.264;2023-04-01T03:50:01;0;0;
78063;PMS5003;67429;51.596;-3.264;2023-04-01T03:52:26;0;0;
78063;PMS5003;67429;51.596;-3.264;2023-04-01T03:54:52;0;0;
78063;PMS5003;67429;51.596;-3.264;2023-04-01T03:57:17;1;1;
78063;PMS5003;67429;51.596;-3.264;2023-04-01T03:59:43;0;0;
78063;PMS5003;67429;51.596;-3.264;2023-04-01T04:02:09;0;0;
78063;PMS5003;67429;51.596;-3.264;2023-04-01T04:04:34;0;0;
78063;PMS5003;67429;51.596;-3.264;2023-04-01T04:07:00;0;0;
78063;PMS5003;67429;51.596;-3.264;2023-04-01T04:09:26;0;0;
78063;PMS5003;67429;51.596;-3.264;2023-04-01T04:11:52;0;0;
78063;PMS5003;67429;51.596;-3.264;2023-04-01T04:14:17;1;1;
78063;PMS5003;67429;51.596;-3.264;2023-04-01T04:16:43;1;1;
78063;PMS5003;67429;51.596;-3.264;2023-04-01T04:19:09;1;1;
78063;PMS5003;67429;51.596;-3.264;2023-04-01T04:21:34;1;1;
78063;PMS5003;67429;51.596;-3.264;2023-04-01T04:24:00;1;1;
78063;PMS5003;67429;51.596;-3.264;2023-04-01T04:26:25;1;1;
78063;PMS5003;67429;51.596;-3.264;2023-04-01T04:28:51;0;0;
78063;PMS5003;67429;51.596;-3.264;2023-04-01T04:31:18;0;0;
78063;PMS5003;67429;51.596;-3.264;2023-04-01T04:33:42;0;0;
78063;PMS5003;67429;51.596;-3.264;2023-04-01T04:36:08;0;0;
78063;PMS5003;67429;51.596;-3.264;2023-04-01T04:38:33;0;0;
78063;PMS5003;67429;51.596;-3.264;2023-04-01T04:40:59;0;0;
78063;PMS5003;67429;51.596;-3.264;2023-04-01T04:43:24;1;1;
78063;PMS5003;67429;51.596;-3.264;2023-04-01T04:45:50;0;0;
78063;PMS5003;67429;51.596;-3.264;2023-04-01T04:48:16;2;1;
78063;PMS5003;67429;51.596;-3.264;2023-04-01T04:50:41;1;1;
78063;PMS5003;67429;51.596;-3.264;2023-04-01T04:53:09;0;0;
78063;PMS5003;67429;51.596;-3.264;2023-04-01T04:55:33;1;1;
78063;PMS5003;67429;51.596;-3.264;2023-04-01T04:57:58;2;0;
78063;PMS5003;67429;51.596;-3.264;2023-04-01T05:00:25;0;0;
78063;PMS5003;67429;51.596;-3.264;2023-04-01T05:02:50;1;1;
78063;PMS5003;67429;51.596;-3.264;2023-04-01T05:05:16;2;2;
78063;PMS5003;67429;51.596;-3.264;2023-04-01T05:07:41;1;1;
78063;PMS5003;67429;51.596;-3.264;2023-04-01T05:10:07;1;1;
78063;PMS5003;67429;51.596;-3.264;2023-04-01T05:12:32;0;0;
78063;PMS5003;67429;51.596;-3.264;2023-04-01T05:14:58;2;2;
78063;PMS5003;67429;51.596;-3.264;2023-04-01T05:17:24;1;1;
78063;PMS5003;67429;51.596;-3.264;2023-04-01T05:19:50;1;1;
78063;PMS5003;67429;51.596;-3.264;2023-04-01T05:22:15;0;0;
78063;PMS5003;67429;51.596;-3.264;2023-04-01T05:24:41;2;2;
78063;PMS5003;67429;51.596;-3.264;2023-04-01T05:27:06;0;0;
78063;PMS5003;67429;51.596;-3.264;2023-04-01T05:29:32;0;0;
78063;PMS5003;67429;51.596;-3.264;2023-04-01T05:31:58;0;0;
78063;PMS5003;67429;51.596;-3.264;2023-04-01T05:34:24;1;1;
78063;PMS5003;67429;51.596;-3.264;2023-04-01T05:36:49;2;2;
78063;PMS5003;67429;51.596;-3.264;2023-04-01T05:39:15;1;1;
78063;PMS5003;67429;51.596;-3.264;2023-04-01T05:41:40;1;1;
78063;PMS5003;67429;51.596;-3.264;2023-04-01T05:44:06;2;2;
78063;PMS5003;67429;51.596;-3.264;2023-04-01T05:46:32;1;1;
78063;PMS5003;67429;51.596;-3.264;2023-04-01T05:48:57;1;1;
78063;PMS5003;67429;51.596;-3.264;2023-04-01T05:51:23;1;1;
78063;PMS5003;67429;51.596;-3.264;2023-04-01T05:53:49;1;0;
78063;PMS5003;67429;51.596;-3.264;2023-04-01T05:56:14;1;1;
78063;PMS5003;67429;51.596;-3.264;2023-04-01T05:58:40;1;1;
78063;PMS5003;67429;51.596;-3.264;2023-04-01T06:01:06;0;0;
78063;PMS5003;67429;51.596;-3.264;2023-04-01T06:03:31;1;1;
78063;PMS5003;67429;51.596;-3.264;2023-04-01T06:05:57;1;1;
78063;PMS5003;67429;51.596;-3.264;2023-04-01T06:08:23;1;1;
78063;PMS5003;67429;51.596;-3.264;2023-04-01T06:10:51;1;1;
78063;PMS5003;67429;51.596;-3.264;2023-04-01T06:13:16;1;1;
78063;PMS5003;67429;51.596;-3.264;2023-04-01T06:15:40;3;3;
78063;PMS5003;67429;51.596;-3.264;2023-04-01T06:20:32;1;1;
78063;PMS5003;67429;51.596;-3.264;2023-04-01T06:23:02;1;1;
78063;PMS5003;67429;51.596;-3.264;2023-04-01T06:25:29;1;1;
78063;PMS5003;67429;51.596;-3.264;2023-04-01T06:27:51;0;0;
78063;PMS5003;67429;51.596;-3.264;2023-04-01T06:32:44;1;1;
78063;PMS5003;67429;51.596;-3.264;2023-04-01T06:35:15;0;0;
78063;PMS5003;67429;51.596;-3.264;2023-04-01T06:37:37;0;0;
78063;PMS5003;67429;51.596;-3.264;2023-04-01T06:40:02;0;0;
78063;PMS5003;67429;51.596;-3.264;2023-04-01T06:42:25;0;0;
78063;PMS5003;67429;51.596;-3.264;2023-04-01T06:44:51;0;0;
78063;PMS5003;67429;51.596;-3.264;2023-04-01T06:47:19;0;0;
78063;PMS5003;67429;51.596;-3.264;2023-04-01T06:49:44;1;0;
78063;PMS5003;67429;51.596;-3.264;2023-04-01T06:52:07;0;0;
78063;PMS5003;67429;51.596;-3.264;2023-04-01T06:54:31;0;0;
78063;PMS5003;67429;51.596;-3.264;2023-04-01T06:56:58;0;0;
78063;PMS5003;67429;51.596;-3.264;2023-04-01T06:59:22;1;1;
78063;PMS5003;67429;51.596;-3.264;2023-04-01T07:01:48;0;0;
78063;PMS5003;67429;51.596;-3.264;2023-04-01T07:04:14;0;0;
78063;PMS5003;67429;51.596;-3.264;2023-04-01T07:06:39;0;0;
78063;PMS5003;67429;51.596;-3.264;2023-04-01T07:09:05;0;0;
78063;PMS5003;67429;51.596;-3.264;2023-04-01T07:11:31;0;0;
78063;PMS5003;67429;51.596;-3.264;2023-04-01T07:13:57;0;0;
78063;PMS5003;67429;51.596;-3.264;2023-04-01T07:16:23;0;0;
78063;PMS5003;67429;51.596;-3.264;2023-04-01T07:18:48;1;1;
78063;PMS5003;67429;51.596;-3.264;2023-04-01T07:21:17;1;1;
78063;PMS5003;67429;51.596;-3.264;2023-04-01T07:23:39;0;0;
78063;PMS5003;67429;51.596;-3.264;2023-04-01T07:26:06;0;0;
78063;PMS5003;67429;51.596;-3.264;2023-04-01T07:28:30;1;1;
78063;PMS5003;67429;51.596;-3.264;2023-04-01T07:30:58;0;0;
78063;PMS5003;67429;51.596;-3.264;2023-04-01T07:33:22;0;0;
78063;PMS5003;67429;51.596;-3.264;2023-04-01T07:35:48;0;0;
78063;PMS5003;67429;51.596;-3.264;2023-04-01T07:38:16;0;0;
78063;PMS5003;67429;51.596;-3.264;2023-04-01T07:40:39;0;0;
78063;PMS5003;67429;51.596;-3.264;2023-04-01T07:43:07;0;0;
78063;PMS5003;67429;51.596;-3.264;2023-04-01T07:45:30;0;0;
78063;PMS5003;67429;51.596;-3.264;2023-04-01T07:48:00;0;0;
78063;PMS5003;67429;51.596;-3.264;2023-04-01T07:50:21;0;0;
78063;PMS5003;67429;51.596;-3.264;2023-04-01T07:52:48;1;0;
78063;PMS5003;67429;51.596;-3.264;2023-04-01T07:55:14;0;0;
78063;PMS5003;67429;51.596;-3.264;2023-04-01T07:57:38;0;0;
78063;PMS5003;67429;51.596;-3.264;2023-04-01T08:00:04;0;0;
78063;PMS5003;67429;51.596;-3.264;2023-04-01T08:02:31;0;0;
78063;PMS5003;67429;51.596;-3.264;2023-04-01T08:04:57;0;0;
78063;PMS5003;67429;51.596;-3.264;2023-04-01T08:07:22;0;0;
78063;PMS5003;67429;51.596;-3.264;2023-04-01T08:09:47;0;0;
78063;PMS5003;67429;51.596;-3.264;2023-04-01T08:12:14;1;1;
78063;PMS5003;67429;51.596;-3.264;2023-04-01T08:14:39;1;0;
78063;PMS5003;67429;51.596;-3.264;2023-04-01T08:17:04;0;0;
78063;PMS5003;67429;51.596;-3.264;2023-04-01T08:19:30;0;0;
78063;PMS5003;67429;51.596;-3.264;2023-04-01T08:21:54;2;2;
78063;PMS5003;67429;51.596;-3.264;2023-04-01T08:24:22;1;1;
78063;PMS5003;67429;51.596;-3.264;2023-04-01T08:26:46;1;1;
78063;PMS5003;67429;51.596;-3.264;2023-04-01T08:29:11;0;0;
78063;PMS5003;67429;51.596;-3.264;2023-04-01T08:31:37;0;0;
78063;PMS5003;67429;51.596;-3.264;2023-04-01T08:34:02;0;0;
78063;PMS5003;67429;51.596;-3.264;2023-04-01T08:36:28;1;1;
78063;PMS5003;67429;51.596;-3.264;2023-04-01T08:38:54;1;1;
78063;PMS5003;67429;51.596;-3.264;2023-04-01T08:41:24;0;0;
78063;PMS5003;67429;51.596;-3.264;2023-04-01T08:43:51;0;0;
78063;PMS5003;67429;51.596;-3.264;2023-04-01T08:46:15;0;0;
78063;PMS5003;67429;51.596;-3.264;2023-04-01T08:48:39;1;1;
78063;PMS5003;67429;51.596;-3.264;2023-04-01T08:51:09;0;0;
78063;PMS5003;67429;51.596;-3.264;2023-04-01T08:53:31;0;0;
78063;PMS5003;67429;51.596;-3.264;2023-04-01T08:55:58;1;1;
78063;PMS5003;67429;51.596;-3.264;2023-04-01T08:58:26;0;0;
78063;PMS5003;67429;51.596;-3.264;2023-04-01T09:00:46;0;0;
78063;PMS5003;67429;51.596;-3.264;2023-04-01T09:03:17;0;0;
78063;PMS5003;67429;51.596;-3.264;2023-04-01T09:08:03;0;0;
78063;PMS5003;67429;51.596;-3.264;2023-04-01T09:10:34;0;0;
78063;PMS5003;67429;51.596;-3.264;2023-04-01T09:12:55;0;0;
78063;PMS5003;67429;51.596;-3.264;2023-04-01T09:15:21;0;0;
78063;PMS5003;67429;51.596;-3.264;2023-04-01T09:17:47;0;0;
78063;PMS5003;67429;51.596;-3.264;2023-04-01T09:22:41;0;0;
78063;PMS5003;67429;51.596;-3.264;2023-04-01T09:25:02;0;0;
78063;PMS5003;67429;51.596;-3.264;2023-04-01T09:27:27;0;0;
78063;PMS5003;67429;51.596;-3.264;2023-04-01T09:32:26;0;0;
78063;PMS5003;67429;51.596;-3.264;2023-04-01T09:39:35;0;0;
78063;PMS5003;67429;51.596;-3.264;2023-04-01T09:44:28;1;1;
78063;PMS5003;67429;51.596;-3.264;2023-04-01T09:46:57;0;0;
78063;PMS5003;67429;51.596;-3.264;2023-04-01T09:49:24;2;2;
78063;PMS5003;67429;51.596;-3.264;2023-04-01T09:51:45;1;1;
78063;PMS5003;67429;51.596;-3.264;2023-04-01T09:54:13;2;2;
78063;PMS5003;67429;51.596;-3.264;2023-04-01T10:01:29;1;1;
78063;PMS5003;67429;51.596;-3.264;2023-04-01T10:03:58;0;0;
78063;PMS5003;67429;51.596;-3.264;2023-04-01T10:06:26;0;0;
78063;PMS5003;67429;51.596;-3.264;2023-04-01T10:08:49;0;0;
78063;PMS5003;67429;51.596;-3.264;2023-04-01T10:13:42;0;0;
78063;PMS5003;67429;51.596;-3.264;2023-04-01T10:16:03;0;0;
78063;PMS5003;67429;51.596;-3.264;2023-04-01T10:18:28;0;0;
78063;PMS5003;67429;51.596;-3.264;2023-04-01T10:20:54;0;0;
78063;PMS5003;67429;51.596;-3.264;2023-04-01T10:23:26;0;0;
78063;PMS5003;67429;51.596;-3.264;2023-04-01T10:28:17;6;6;
78063;PMS5003;67429;51.596;-3.264;2023-04-01T10:30:37;4;3;
78063;PMS5003;67429;51.596;-3.264;2023-04-01T10:33:10;3;2;
78063;PMS5003;67429;51.596;-3.264;2023-04-01T10:35:29;1;1;
78063;PMS5003;67429;51.596;-3.264;2023-04-01T10:42:44;1;1;
78063;PMS5003;67429;51.596;-3.264;2023-04-01T10:47:37;0;0;
78063;PMS5003;67429;51.596;-3.264;2023-04-01T10:52:28;2;2;
78063;PMS5003;67429;51.596;-3.264;2023-04-01T10:54:49;1;1;
78063;PMS5003;67429;51.596;-3.264;2023-04-01T10:59:47;3;3;
78063;PMS5003;67429;51.596;-3.264;2023-04-01T11:04:37;4;2;
78063;PMS5003;67429;51.596;-3.264;2023-04-01T11:11:55;4;4;
78063;PMS5003;67429;51.596;-3.264;2023-04-01T11:14:19;4;3;
78063;PMS5003;67429;51.596;-3.264;2023-04-01T11:16:45;4;4;
78063;PMS5003;67429;51.596;-3.264;2023-04-01T11:19:09;5;5;
78063;PMS5003;67429;51.596;-3.264;2023-04-01T11:24:03;6;5;
78063;PMS5003;67429;51.596;-3.264;2023-04-01T11:26:25;5;5;
78063;PMS5003;67429;51.596;-3.264;2023-04-01T11:28:50;6;5;
78063;PMS5003;67429;51.596;-3.264;2023-04-01T11:31:21;5;5;
78063;PMS5003;67429;51.596;-3.264;2023-04-01T11:33:39;5;5;
78063;PMS5003;67429;51.596;-3.264;2023-04-01T11:36:08;4;4;
78063;PMS5003;67429;51.596;-3.264;2023-04-01T11:38:32;5;5;
78063;PMS5003;67429;51.596;-3.264;2023-04-01T11:40:56;5;5;
78063;PMS5003;67429;51.596;-3.264;2023-04-01T11:43:21;6;5;
78063;PMS5003;67429;51.596;-3.264;2023-04-01T11:45:46;7;7;
78063;PMS5003;67429;51.596;-3.264;2023-04-01T11:48:18;6;6;
78063;PMS5003;67429;51.596;-3.264;2023-04-01T11:50:39;9;9;
78063;PMS5003;67429;51.596;-3.264;2023-04-01T11:55:31;7;7;
78063;PMS5003;67429;51.596;-3.264;2023-04-01T11:57:58;6;6;
78063;PMS5003;67429;51.596;-3.264;2023-04-01T12:00:23;8;8;
78063;PMS5003;67429;51.596;-3.264;2023-04-01T12:02:47;10;9;
78063;PMS5003;67429;51.596;-3.264;2023-04-01T12:05:20;10;9;
78063;PMS5003;67429;51.596;-3.264;2023-04-01T12:07:49;6;5;
78063;PMS5003;67429;51.596;-3.264;2023-04-01T12:10:02;9;8;
78063;PMS5003;67429;51.596;-3.264;2023-04-01T12:12:29;10;10;
78063;PMS5003;67429;51.596;-3.264;2023-04-01T12:14:56;9;9;
78063;PMS5003;67429;51.596;-3.264;2023-04-01T12:17:21;11;10;
78063;PMS5003;67429;51.596;-3.264;2023-04-01T12:19:46;9;9;
78063;PMS5003;67429;51.596;-3.264;2023-04-01T12:22:14;10;10;
78063;PMS5003;67429;51.596;-3.264;2023-04-01T12:24:41;11;11;
78063;PMS5003;67429;51.596;-3.264;2023-04-01T12:27:05;9;9;
78063;PMS5003;67429;51.596;-3.264;2023-04-01T12:31:52;12;12;
78063;PMS5003;67429;51.596;-3.264;2023-04-01T12:36:45;8;8;
78063;PMS5003;67429;51.596;-3.264;2023-04-01T12:39:14;8;8;
78063;PMS5003;67429;51.596;-3.264;2023-04-01T12:41:36;9;9;
78063;PMS5003;67429;51.596;-3.264;2023-04-01T12:44:07;5;5;
78063;PMS5003;67429;51.596;-3.264;2023-04-01T12:46:26;6;6;
78063;PMS5003;67429;51.596;-3.264;2023-04-01T12:49:00;6;5;
78063;PMS5003;67429;51.596;-3.264;2023-04-01T12:51:23;6;6;
78063;PMS5003;67429;51.596;-3.264;2023-04-01T12:53:45;7;7;
78063;PMS5003;67429;51.596;-3.264;2023-04-01T12:56:08;5;5;
78063;PMS5003;67429;51.596;-3.264;2023-04-01T12:58:37;4;4;
78063;PMS5003;67429;51.596;-3.264;2023-04-01T13:01:03;3;3;
78063;PMS5003;67429;51.596;-3.264;2023-04-01T13:03:30;4;4;
78063;PMS5003;67429;51.596;-3.264;2023-04-01T13:05:58;5;5;
78063;PMS5003;67429;51.596;-3.264;2023-04-01T13:08:18;6;5;
78063;PMS5003;67429;51.596;-3.264;2023-04-01T13:10:44;4;4;
78063;PMS5003;67429;51.596;-3.264;2023-04-01T13:13:10;5;5;
78063;PMS5003;67429;51.596;-3.264;2023-04-01T13:15:32;3;3;
78063;PMS5003;67429;51.596;-3.264;2023-04-01T13:17:58;5;5;
78063;PMS5003;67429;51.596;-3.264;2023-04-01T13:20:25;3;3;
78063;PMS5003;67429;51.596;-3.264;2023-04-01T13:22:52;4;4;
78063;PMS5003;67429;51.596;-3.264;2023-04-01T13:25:15;4;3;
78063;PMS5003;67429;51.596;-3.264;2023-04-01T13:27:39;4;4;
78063;PMS5003;67429;51.596;-3.264;2023-04-01T13:30:11;3;3;
78063;PMS5003;67429;51.596;-3.264;2023-04-01T13:32:32;4;3;
78063;PMS5003;67429;51.596;-3.264;2023-04-01T13:35:04;3;3;
78063;PMS5003;67429;51.596;-3.264;2023-04-01T13:37:26;3;3;
78063;PMS5003;67429;51.596;-3.264;2023-04-01T13:39:53;2;2;
78063;PMS5003;67429;51.596;-3.264;2023-04-01T13:42:14;4;4;
78063;PMS5003;67429;51.596;-3.264;2023-04-01T13:44:38;1;1;
78063;PMS5003;67429;51.596;-3.264;2023-04-01T13:49:39;1;1;
78063;PMS5003;67429;51.596;-3.264;2023-04-01T13:51:57;2;2;
78063;PMS5003;67429;51.596;-3.264;2023-04-01T13:56:48;2;2;
78063;PMS5003;67429;51.596;-3.264;2023-04-01T14:01:38;3;3;
78063;PMS5003;67429;51.596;-3.264;2023-04-01T14:04:03;4;4;
78063;PMS5003;67429;51.596;-3.264;2023-04-01T14:06:28;3;3;
78063;PMS5003;67429;51.596;-3.264;2023-04-01T14:11:19;2;2;
78063;PMS5003;67429;51.596;-3.264;2023-04-01T14:13:46;3;3;
78063;PMS5003;67429;51.596;-3.264;2023-04-01T14:18:39;2;2;
78063;PMS5003;67429;51.596;-3.264;2023-04-01T14:21:04;3;3;
78063;PMS5003;67429;51.596;-3.264;2023-04-01T14:23:35;3;2;
78063;PMS5003;67429;51.596;-3.264;2023-04-01T14:25:54;3;3;
78063;PMS5003;67429;51.596;-3.264;2023-04-01T14:28:18;2;2;
78063;PMS5003;67429;51.596;-3.264;2023-04-01T14:30:43;2;2;
78063;PMS5003;67429;51.596;-3.264;2023-04-01T14:33:12;4;4;
78063;PMS5003;67429;51.596;-3.264;2023-04-01T14:35:35;2;2;
78063;PMS5003;67429;51.596;-3.264;2023-04-01T14:38:02;3;3;
78063;PMS5003;67429;51.596;-3.264;2023-04-01T14:40:27;6;5;
78063;PMS5003;67429;51.596;-3.264;2023-04-01T14:42:54;2;2;
78063;PMS5003;67429;51.596;-3.264;2023-04-01T14:47:43;5;5;
78063;PMS5003;67429;51.596;-3.264;2023-04-01T14:50:06;4;4;
78063;PMS5003;67429;51.596;-3.264;2023-04-01T14:52:31;4;4;
78063;PMS5003;67429;51.596;-3.264;2023-04-01T14:54:56;6;6;
78063;PMS5003;67429;51.596;-3.264;2023-04-01T14:57:23;6;6;
78063;PMS5003;67429;51.596;-3.264;2023-04-01T14:59:48;6;6;
78063;PMS5003;67429;51.596;-3.264;2023-04-01T15:02:16;8;8;
78063;PMS5003;67429;51.596;-3.264;2023-04-01T15:04:44;5;4;
78063;PMS5003;67429;51.596;-3.264;2023-04-01T15:07:08;8;8;
78063;PMS5003;67429;51.596;-3.264;2023-04-01T15:09:32;7;7;
78063;PMS5003;67429;51.596;-3.264;2023-04-01T15:11:58;9;7;
78063;PMS5003;67429;51.596;-3.264;2023-04-01T15:14:25;7;7;
78063;PMS5003;67429;51.596;-3.264;2023-04-01T15:16:49;9;8;
78063;PMS5003;67429;51.596;-3.264;2023-04-01T15:19:14;9;8;
78063;PMS5003;67429;51.596;-3.264;2023-04-01T15:21:45;7;7;
78063;PMS5003;67429;51.596;-3.264;2023-04-01T15:24:05;8;8;
78063;PMS5003;67429;51.596;-3.264;2023-04-01T15:26:37;10;10;
78063;PMS5003;67429;51.596;-3.264;2023-04-01T15:28:57;9;9;
78063;PMS5003;67429;51.596;-3.264;2023-04-01T15:31:20;7;7;
78063;PMS5003;67429;51.596;-3.264;2023-04-01T15:33:47;7;7;
78063;PMS5003;67429;51.596;-3.264;2023-04-01T15:36:14;8;8;
78063;PMS5003;67429;51.596;-3.264;2023-04-01T15:38:36;8;8;
78063;PMS5003;67429;51.596;-3.264;2023-04-01T15:41:03;8;8;
78063;PMS5003;67429;51.596;-3.264;2023-04-01T15:43:28;7;7;
78063;PMS5003;67429;51.596;-3.264;2023-04-01T15:45:56;9;9;
78063;PMS5003;67429;51.596;-3.264;2023-04-01T15:48:20;9;9;
78063;PMS5003;67429;51.596;-3.264;2023-04-01T15:50:47;9;9;
78063;PMS5003;67429;51.596;-3.264;2023-04-01T15:53:13;11;11;
78063;PMS5003;67429;51.596;-3.264;2023-04-01T15:55:37;10;10;
78063;PMS5003;67429;51.596;-3.264;2023-04-01T15:58:03;10;10;
78063;PMS5003;67429;51.596;-3.264;2023-04-01T16:00:26;11;11;
78063;PMS5003;67429;51.596;-3.264;2023-04-01T16:02:52;12;11;
78063;PMS5003;67429;51.596;-3.264;2023-04-01T16:07:43;11;10;
78063;PMS5003;67429;51.596;-3.264;2023-04-01T16:10:09;12;12;
78063;PMS5003;67429;51.596;-3.264;2023-04-01T16:12:37;12;11;
78063;PMS5003;67429;51.596;-3.264;2023-04-01T16:15:01;12;11;
78063;PMS5003;67429;51.596;-3.264;2023-04-01T16:17:27;18;16;
78063;PMS5003;67429;51.596;-3.264;2023-04-01T16:19:51;10;10;
78063;PMS5003;67429;51.596;-3.264;2023-04-01T16:22:16;7;7;
78063;PMS5003;67429;51.596;-3.264;2023-04-01T16:24:41;10;10;
78063;PMS5003;67429;51.596;-3.264;2023-04-01T16:27:08;11;11;
78063;PMS5003;67429;51.596;-3.264;2023-04-01T16:29:33;10;10;
78063;PMS5003;67429;51.596;-3.264;2023-04-01T16:32:00;10;10;
78063;PMS5003;67429;51.596;-3.264;2023-04-01T16:34:24;8;8;
78063;PMS5003;67429;51.596;-3.264;2023-04-01T16:36:48;10;10;
78063;PMS5003;67429;51.596;-3.264;2023-04-01T16:39:25;8;8;
78063;PMS5003;67429;51.596;-3.264;2023-04-01T16:41:41;11;11;
78063;PMS5003;67429;51.596;-3.264;2023-04-01T16:44:09;8;8;
78063;PMS5003;67429;51.596;-3.264;2023-04-01T16:46:31;9;9;
78063;PMS5003;67429;51.596;-3.264;2023-04-01T16:48:58;10;9;
78063;PMS5003;67429;51.596;-3.264;2023-04-01T16:51:22;10;9;
78063;PMS5003;67429;51.596;-3.264;2023-04-01T16:53:48;6;6;
78063;PMS5003;67429;51.596;-3.264;2023-04-01T16:56:13;5;5;
78063;PMS5003;67429;51.596;-3.264;2023-04-01T16:58:39;7;7;
78063;PMS5003;67429;51.596;-3.264;2023-04-01T17:01:05;7;7;
78063;PMS5003;67429;51.596;-3.264;2023-04-01T17:03:30;10;10;
78063;PMS5003;67429;51.596;-3.264;2023-04-01T17:06:00;7;7;
78063;PMS5003;67429;51.596;-3.264;2023-04-01T17:08:23;11;11;
78063;PMS5003;67429;51.596;-3.264;2023-04-01T17:10:48;3;3;
78063;PMS5003;67429;51.596;-3.264;2023-04-01T17:13:16;14;14;
78063;PMS5003;67429;51.596;-3.264;2023-04-01T17:15:38;7;7;
78063;PMS5003;67429;51.596;-3.264;2023-04-01T17:18:04;14;14;
78063;PMS5003;67429;51.596;-3.264;2023-04-01T17:20:33;11;11;
78063;PMS5003;67429;51.596;-3.264;2023-04-01T17:22:54;9;9;
78063;PMS5003;67429;51.596;-3.264;2023-04-01T17:25:31;6;6;
78063;PMS5003;67429;51.596;-3.264;2023-04-01T17:27:47;12;12;
78063;PMS5003;67429;51.596;-3.264;2023-04-01T17:30:13;8;8;
78063;PMS5003;67429;51.596;-3.264;2023-04-01T17:32:39;8;8;
78063;PMS5003;67429;51.596;-3.264;2023-04-01T17:35:02;4;4;
78063;PMS5003;67429;51.596;-3.264;2023-04-01T17:37:28;10;9;